Bogota, Colombia
Current Conditions -  °F | °C
As of 7:00 AM on Thursday 23 Oct 2014 (Local Time) from SKBO Reporting Station
Broken Clouds Broken Clouds  
Wind Chill: 54°   Ceiling: 8000
Heat Index: 54°   Visibility: 6mi
Dew Point: 48°   Wind: 3mph
Humidity: 82%   Direction: 30°NNE
Pressure: 30.37"   Gusts: NA
Location:  4.63°N, 74.09°W
Report Text: SKBO 231200Z 03003KT 9999 FEW017 BKN080 12/09 A3037
Loading
Personal Weather Stations






























Interactive Weather Map
Tropical Storm Tracking
New forecast layout! Learn more

10-Day Weather Forecast

Advertisements
Track Severe Weather on mobile